Latest Coastal Weather Observations for Hindmarsh Island

IDS60701

Issued at 2:51 am CDT Sunday 11 December 2016 (issued every 10 minutes, with the page automatically refreshed every 10 minutes)

About coastal observations | Map of coastal stations | Coastal observations for SA | Marine services | Other Formats
Station Details ID: 023894 Name: HINDMARSH ISLAND AWS Lat: -35.52 Lon: 138.82 Height: 11.0 m
Data from the previous 72 hours. | See also: Recent months at Hindmarsh Island
Date/Time
CDT
Temp
°C
Wind Pressure Rain since
9am
mm
Weather Cloud Vis
km
Sea
Height
m
Swell
Dir  Spd
kts
Gust
kts
hPa Trend Height
m
Period
s
Dir
11/02:30am 14.9 ESE 9 13 1022.7 - 0.0 - - - - - - -
11/02:00am 14.9 SE 12 14 1022.9 - 0.0 - - - - - - -
11/01:30am 14.9 SE 11 14 1023.2 - 0.0 - - - - - - -
11/01:00am 14.7 SE 11 13 1023.3 - 0.0 - - - - - - -
11/12:30am 14.8 SSE 11 14 1023.5 - 0.0 - - - - - - -
11/12:00am 14.7 SSE 11 13 1023.7 - 0.0 - - - - - - -
 
Date/Time
CDT
Temp
°C
Wind Pressure Rain since
9am
mm
Weather Cloud Vis
km
Sea
Height
m
Swell
Dir  Spd
kts
Gust
kts
hPa Trend Height
m
Period
s
Dir
10/11:30pm 14.8 SSE 11 14 1023.8 - 0.0 - - - - - - -
10/11:00pm 14.6 SSE 13 15 1023.8 - 0.0 - - - - - - -
10/10:30pm 14.6 SSE 14 17 1023.9 - 0.0 - - - - - - -
10/10:00pm 14.6 SSE 13 16 1023.8 - 0.0 - - - - - - -
10/09:30pm 14.6 SSE 13 15 1023.7 - 0.0 - - - - - - -
10/09:00pm 14.8 SSE 13 16 1023.6 - 0.0 - - - - - - -
10/08:30pm 14.9 SSE 13 16 1023.4 - 0.0 - - - - - - -
10/08:00pm 15.3 SSE 14 17 1023.2 - 0.0 - - - - - - -
10/07:30pm 15.7 SSE 16 18 1023.0 - 0.0 - - - - - - -
10/07:00pm 16.4 SSE 15 18 1022.8 - 0.0 - - - - - - -
10/06:30pm 16.9 SSE 15 19 1022.7 - 0.0 - - - - - - -
10/06:00pm 17.2 S 17 21 1022.6 - 0.0 - - - - - - -
10/05:30pm 17.3 S 16 19 1022.6 - 0.0 - - - - - - -
10/05:00pm 17.8 S 16 20 1022.7 - 0.0 - - - - - - -
10/04:30pm 18.2 S 16 20 1023.0 - 0.0 - - - - - - -
10/04:00pm 18.0 S 16 19 1023.0 - 0.0 - - - - - - -
10/03:30pm 18.8 S 16 18 1023.1 - 0.0 - - - - - - -
10/03:00pm 18.6 SSE 15 18 1023.1 - 0.0 - - - - - - -
10/02:30pm 18.4 SSE 15 18 1023.1 - 0.0 - - - - - - -
10/02:00pm 19.0 SSE 15 19 1023.3 - 0.0 - - - - - - -
10/01:30pm 18.9 SSE 15 18 1023.4 - 0.0 - - - - - - -
10/01:00pm 19.1 SSE 14 17 1023.8 - 0.0 - - - - - - -
10/12:30pm 18.6 SSE 16 19 1023.8 - 0.0 - - - - - - -
10/12:00pm 18.9 SSE 12 15 1023.9 - 0.0 - - - - - - -
10/11:30am 19.1 SSE 7 8 1024.3 - 0.0 - - - - - - -
10/11:00am 18.4 NNE 6 14 1024.3 - 0.0 - - - - - - -
10/10:30am 18.0 ENE 5 8 1024.6 - 0.0 - - - - - - -
10/10:00am 17.1 NNE 6 11 1024.7 - 0.0 - - - - - - -
10/09:30am 16.5 ENE 8 13 1024.6 - 0.0 - - - - - - -
10/09:00am 15.4 NE 11 15 1024.7 - 0.0 - - - - - - -
10/08:30am 14.7 NE 11 15 1024.5 - 0.0 - - - - - - -
10/08:00am 14.1 NNE 8 10 1024.7 - 0.0 - - - - - - -
10/07:30am 12.8 NNE 7 9 1024.6 - 0.0 - - - - - - -
10/07:00am 12.1 N 7 8 1024.1 - 0.0 - - - - - - -
10/06:30am 12.0 NNE 7 9 1023.7 - 0.0 - - - - - - -
10/06:00am 11.9 NE 7 8 1023.7 - 0.0 - - - - - - -
10/05:30am 10.8 ENE 7 9 1023.1 - 0.0 - - - - - - -
10/05:00am 10.7 ENE 7 7 1023.0 - 0.0 - - - - - - -
10/04:30am 11.3 NE 7 8 1022.8 - 0.0 - - - - - - -
10/04:00am 11.1 ENE 7 7 1022.8 - 0.0 - - - - - - -
10/03:30am 11.2 NE 7 7 1022.7 - 0.0 - - - - - - -
10/03:00am 12.1 NE 5 5 1022.8 - 0.0 - - - - - - -
10/02:30am 12.5 NE 4 4 1023.1 - 0.0 - - - - - - -
10/02:00am 12.3 ENE 5 6 1023.2 - 0.0 - - - - - - -
10/01:30am 13.5 ESE 6 10 1023.5 - 0.0 - - - - - - -
10/01:00am 13.9 ESE 7 10 1023.5 - 0.0 - - - - - - -
10/12:30am 14.0 ESE 9 12 1023.6 - 0.0 - - - - - - -
10/12:00am 14.0 SE 9 12 1023.9 - 0.0 - - - - - - -
 
Date/Time
CDT
Temp
°C
Wind Pressure Rain since
9am
mm
Weather Cloud Vis
km
Sea
Height
m
Swell
Dir  Spd
kts
Gust
kts
hPa Trend Height
m
Period
s
Dir
09/11:30pm 14.2 SSE 11 14 1024.0 - 0.0 - - - - - - -
09/11:00pm 14.2 SE 13 19 1024.0 - 0.0 - - - - - - -
09/10:30pm 14.1 SSE 9 14 1024.0 - 0.0 - - - - - - -
09/10:00pm 14.2 SSE 11 16 1024.0 - 0.0 - - - - - - -
09/09:30pm 14.4 SSE 12 16 1023.8 - 0.0 - - - - - - -
09/09:00pm 14.3 S 11 13 1023.7 - 0.0 - - - - - - -
09/08:30pm 14.7 SSE 11 16 1023.4 - 0.0 - - - - - - -
09/08:00pm 14.6 S 11 15 1023.4 - 0.0 - - - - - - -
09/07:30pm 14.8 S 13 17 1023.1 - 0.0 - - - - - - -
09/07:00pm 15.2 S 14 19 1022.7 - 0.0 - - - - - - -
09/06:30pm 15.2 S 14 19 1022.6 - 0.0 - - - - - - -
09/06:00pm 16.0 S 13 17 1022.5 - 0.0 - - - - - - -
09/05:30pm 16.3 S 13 16 1022.5 - 0.0 - - - - - - -
09/05:00pm 16.1 S 14 18 1022.5 - 0.0 - - - - - - -
09/04:30pm 16.6 S 14 17 1022.6 - 0.0 - - - - - - -
09/04:00pm 18.1 SSW 14 18 1022.4 - 0.0 - - - - - - -
09/03:30pm 17.2 S 15 17 1022.5 - 0.0 - - - - - - -
09/03:00pm 18.0 SSW 15 18 1022.5 - 0.0 - - - - - - -
09/02:30pm 16.8 S 15 18 1022.6 - 0.0 - - - - - - -
09/02:00pm 17.4 SSW 15 18 1022.8 - 0.0 - - - - - - -
09/01:30pm 16.1 S 14 17 1023.0 - 0.0 - - - - - - -
09/01:00pm 16.8 SSW 14 17 1023.1 - 0.0 - - - - - - -
09/12:30pm 16.4 SSW 14 17 1023.2 - 0.0 - - - - - - -
09/12:00pm 16.1 S 14 17 1023.2 - 0.0 - - - - - - -
09/11:30am 16.6 S 15 18 1022.9 - 0.0 - - - - - - -
09/11:00am 15.9 S 13 16 1022.8 - 0.0 - - - - - - -
09/10:30am 15.4 S 13 15 1022.5 - 0.0 - - - - - - -
09/10:00am 15.7 SSW 14 18 1022.2 - 0.0 - - - - - - -
09/09:30am 15.2 S 14 16 1022.1 - 0.0 - - - - - - -
09/09:00am 15.0 S 16 19 1021.8 - 0.0 - - - - - - -
09/08:30am 14.7 S 17 20 1021.4 - 0.0 - - - - - - -
09/08:00am 14.8 S 18 24 1020.8 - 0.0 - - - - - - -
09/07:30am 14.2 S 17 24 1020.3 - 0.0 - - - - - - -
09/07:00am 13.5 SSW 18 24 1020.0 - 0.0 - - - - - - -
09/06:30am 14.2 SSW 18 22 1019.5 - 0.0 - - - - - - -
09/06:00am 14.1 SSW 18 25 1019.1 - 0.0 - - - - - - -
09/05:30am 14.2 SSW 19 23 1018.6 - 0.0 - - - - - - -
09/05:00am 14.4 SSW 19 23 1018.2 - 0.0 - - - - - - -
09/04:30am 14.1 SSW 18 22 1017.7 - 0.0 - - - - - - -
09/04:00am 14.3 SSW 17 21 1017.4 - 0.0 - - - - - - -
09/03:30am 14.4 SSW 18 25 1017.2 - 0.0 - - - - - - -
09/03:00am 14.1 SSW 17 22 1017.0 - 0.0 - - - - - - -
09/02:30am 14.1 SSW 20 25 1016.9 - 0.0 - - - - - - -
09/02:00am 14.4 SSW 18 21 1016.7 - 0.0 - - - - - - -
09/01:30am 14.4 S 19 23 1016.7 - 0.0 - - - - - - -
09/01:00am 14.4 SSW 23 27 1016.5 - 0.0 - - - - - - -
09/12:30am 14.2 SSW 24 30 1016.6 - 0.0 - - - - - - -
09/12:00am 14.4 SSW 24 29 1016.6 - 0.0 - - - - - - -
 
Date/Time
CDT
Temp
°C
Wind Pressure Rain since
9am
mm
Weather Cloud Vis
km
Sea
Height
m
Swell
Dir  Spd
kts
Gust
kts
hPa Trend Height
m
Period
s
Dir
08/11:30pm 14.6 SSW 23 28 1016.7 - 0.0 - - - - - - -
08/11:00pm 14.7 SSW 25 29 1016.4 - 0.0 - - - - - - -
08/10:30pm 14.5 SSW 20 26 1016.3 - 0.0 - - - - - - -
08/10:00pm 14.3 SSW 25 30 1015.9 - 0.0 - - - - - - -
08/09:30pm 14.9 SSW 24 30 1015.1 - 0.0 - - - - - - -
08/09:00pm 14.5 SSW 27 34 1014.5 - 0.0 - - - - - - -
08/08:30pm 15.1 SSW 24 30 1014.3 - 0.0 - - - - - - -
08/08:00pm 15.4 SW 22 28 1013.7 - 0.0 - - - - - - -
08/07:30pm 15.3 SW 25 30 1013.4 - 0.0 - - - - - - -
08/07:00pm 16.0 SW 25 31 1013.0 - 0.0 - - - - - - -
08/06:30pm 15.3 SW 27 38 1012.1 - 0.0 - - - - - - -
08/06:14pm 16.4 SW 24 36 1011.7 - 0.0 - - - - - - -
08/06:00pm 17.0 SW 22 30 1011.6 - 0.0 - - - - - - -
08/05:30pm 17.5 SW 24 31 1011.2 - 0.0 - - - - - - -
08/05:00pm 17.9 SW 24 33 1010.8 - 0.0 - - - - - - -
08/04:30pm 16.0 SW 30 40 1010.4 - 0.0 - - - - - - -
08/04:20pm 17.5 SW 25 35 1010.2 - 0.0 - - - - - - -
08/04:00pm 18.1 SW 25 32 1010.1 - 0.0 - - - - - - -
08/03:30pm 18.7 SW 25 32 1009.7 - 0.0 - - - - - - -
08/03:00pm 18.5 SW 28 36 1009.7 - 0.0 - - - - - - -
08/02:30pm 18.8 SW 27 33 1009.5 - 0.0 - - - - - - -
08/02:11pm 18.5 SW 25 35 1009.6 - 0.0 - - - - - - -
08/02:00pm 18.0 SW 25 33 1009.5 - 0.0 - - - - - - -
08/01:30pm 18.7 SW 28 35 1009.0 - 0.0 - - - - - - -
08/01:00pm 18.9 SW 26 35 1008.6 - 0.0 - - - - - - -
08/12:30pm 16.6 SW 28 39 1008.4 - 0.0 - - - - - - -
08/12:27pm 17.5 SW 29 39 1008.2 - 0.0 - - - - - - -
08/12:00pm 17.7 SW 29 36 1007.5 - 0.0 - - - - - - -
08/11:30am 18.4 SW 27 34 1007.3 - 0.0 - - - - - - -
08/11:00am 18.8 WSW 22 31 1007.1 - 0.0 - - - - - - -
08/10:39am 19.2 WSW 19 30 1006.7 - 0.0 - - - - - - -
08/10:30am 18.2 W 19 26 1006.8 - 0.0 - - - - - - -
08/10:00am 17.9 WSW 21 31 1006.2 - 0.0 - - - - - - -
08/09:31am 17.8 W 19 29 1006.0 - 0.0 - - - - - - -
08/09:30am 17.9 W 20 29 1006.0 - 0.0 - - - - - - -
08/09:06am 17.5 W 23 33 1005.9 - 0.0 - - - - - - -
08/09:00am 17.2 W 22 29 1005.7 - 7.4 - - - - - - -
08/08:30am 16.7 W 23 32 1005.4 - 7.4 - - - - - - -
08/08:25am 16.6 W 21 32 1005.1 - 7.4 - - - - - - -
08/08:00am 16.5 W 21 30 1005.1 - 7.4 - - - - - - -
08/07:33am 15.9 W 18 28 1004.8 - 7.4 - - - - - - -
08/07:30am 15.8 W 19 28 1004.8 - 7.4 - - - - - - -
08/07:00am 15.6 W 16 22 1004.2 - 7.4 - - - - - - -
08/06:30am 15.4 W 18 25 1003.6 - 7.4 - - - - - - -
08/06:01am 15.1 W 16 27 1003.2 - 7.4 - - - - - - -
08/06:00am 15.1 W 15 22 1003.2 - 7.4 - - - - - - -
08/05:30am 15.2 W 18 23 1002.8 - 7.4 - - - - - - -
08/05:09am 15.5 W 19 29 1002.3 - 7.4 - - - - - - -
08/05:00am 15.8 W 17 25 1002.2 - 7.4 - - - - - - -
08/04:30am 16.2 WSW 22 32 1001.5 - 7.4 - - - - - - -
08/04:16am 16.3 WSW 22 33 1001.0 - 7.4 - - - - - - -
08/04:00am 16.5 WSW 23 33 1000.7 - 7.4 - - - - - - -
08/03:52am 17.8 W 17 27 1001.0 - 7.4 - - - - - - -
08/03:30am 18.2 W 19 25 1000.4 - 7.4 - - - - - - -
08/03:00am 18.4 W 16 22 999.9 - 7.4 - - - - - - -

Other Formats:

Comma delimited format used in spreadsheet applications
http://www.bom.gov.au/fwo/IDS60701/IDS60701.94677.axf

JavaScript Object Notation format (JSON) in row-major order
http://www.bom.gov.au/fwo/IDS60701/IDS60701.94677.json